sensor_id;sensor_type;location;lat;lon;timestamp;pressure;altitude;pressure_sealevel;temperature;humidity
39491;BME280;25175;50.140;18.990;2022-08-04T00:00:10;98731.34;;;19.22;60.98
39491;BME280;25175;50.140;18.990;2022-08-04T00:03:18;98732.41;;;19.21;60.89
39491;BME280;25175;50.140;18.990;2022-08-04T00:06:33;98731.84;;;19.19;60.95
39491;BME280;25175;50.140;18.990;2022-08-04T00:09:43;98729.47;;;19.17;60.90
39491;BME280;25175;50.140;18.990;2022-08-04T00:12:50;98722.78;;;19.15;60.53
39491;BME280;25175;50.140;18.990;2022-08-04T00:15:53;98725.16;;;19.11;60.73
39491;BME280;25175;50.140;18.990;2022-08-04T00:19:03;98721.94;;;19.09;60.79
39491;BME280;25175;50.140;18.990;2022-08-04T00:22:08;98725.88;;;19.07;60.83
39491;BME280;25175;50.140;18.990;2022-08-04T00:25:11;98716.00;;;19.02;61.09
39491;BME280;25175;50.140;18.990;2022-08-04T00:28:14;98717.22;;;18.95;61.14
39491;BME280;25175;50.140;18.990;2022-08-04T00:31:17;98720.81;;;18.84;61.13
39491;BME280;25175;50.140;18.990;2022-08-04T00:34:21;98725.78;;;18.75;61.63
39491;BME280;25175;50.140;18.990;2022-08-04T00:37:25;98716.63;;;18.66;61.64
39491;BME280;25175;50.140;18.990;2022-08-04T00:40:46;98717.91;;;18.59;62.11
39491;BME280;25175;50.140;18.990;2022-08-04T00:44:04;98721.25;;;18.54;62.29
39491;BME280;25175;50.140;18.990;2022-08-04T00:47:21;98724.16;;;18.53;62.48
39491;BME280;25175;50.140;18.990;2022-08-04T00:50:37;98728.63;;;18.47;62.71
39491;BME280;25175;50.140;18.990;2022-08-04T00:53:52;98725.16;;;18.47;62.89
39491;BME280;25175;50.140;18.990;2022-08-04T00:57:17;98720.34;;;18.44;62.82
39491;BME280;25175;50.140;18.990;2022-08-04T01:00:23;98724.78;;;18.38;63.02
39491;BME280;25175;50.140;18.990;2022-08-04T01:03:36;98721.81;;;18.35;63.03
39491;BME280;25175;50.140;18.990;2022-08-04T01:06:58;98730.19;;;18.27;63.18
39491;BME280;25175;50.140;18.990;2022-08-04T01:10:10;98720.28;;;18.22;63.15
39491;BME280;25175;50.140;18.990;2022-08-04T01:17:07;98735.88;;;18.19;62.93
39491;BME280;25175;50.140;18.990;2022-08-04T01:20:20;98738.22;;;18.15;63.14
39491;BME280;25175;50.140;18.990;2022-08-04T01:23:43;98727.53;;;18.10;63.19
39491;BME280;25175;50.140;18.990;2022-08-04T01:26:54;98729.13;;;18.11;63.28
39491;BME280;25175;50.140;18.990;2022-08-04T01:29:58;98732.28;;;18.08;63.08
39491;BME280;25175;50.140;18.990;2022-08-04T01:33:06;98719.28;;;18.07;63.20
39491;BME280;25175;50.140;18.990;2022-08-04T01:36:10;98720.88;;;18.08;63.00
39491;BME280;25175;50.140;18.990;2022-08-04T01:39:14;98725.38;;;18.07;63.05
39491;BME280;25175;50.140;18.990;2022-08-04T01:42:35;98719.94;;;17.97;63.71
39491;BME280;25175;50.140;18.990;2022-08-04T01:45:39;98718.50;;;17.90;63.81
39491;BME280;25175;50.140;18.990;2022-08-04T01:48:45;98713.94;;;17.85;64.19
39491;BME280;25175;50.140;18.990;2022-08-04T01:51:49;98712.31;;;17.84;64.35
39491;BME280;25175;50.140;18.990;2022-08-04T01:54:52;98709.34;;;17.81;64.55
39491;BME280;25175;50.140;18.990;2022-08-04T01:57:57;98706.38;;;17.77;64.59
39491;BME280;25175;50.140;18.990;2022-08-04T02:01:03;98724.38;;;17.75;64.73
39491;BME280;25175;50.140;18.990;2022-08-04T02:04:05;98716.34;;;17.70;64.61
39491;BME280;25175;50.140;18.990;2022-08-04T02:07:22;98710.88;;;17.60;64.75
39491;BME280;25175;50.140;18.990;2022-08-04T02:10:32;98723.81;;;17.57;65.03
39491;BME280;25175;50.140;18.990;2022-08-04T02:13:38;98711.84;;;17.54;65.09
39491;BME280;25175;50.140;18.990;2022-08-04T02:16:49;98709.19;;;17.54;64.90
39491;BME280;25175;50.140;18.990;2022-08-04T02:20:03;98716.66;;;17.58;65.03
39491;BME280;25175;50.140;18.990;2022-08-04T02:23:08;98702.38;;;17.58;64.84
39491;BME280;25175;50.140;18.990;2022-08-04T02:26:12;98706.63;;;17.59;64.74
39491;BME280;25175;50.140;18.990;2022-08-04T02:29:20;98702.13;;;17.60;64.60
39491;BME280;25175;50.140;18.990;2022-08-04T02:32:27;98697.53;;;17.55;64.57
39491;BME280;25175;50.140;18.990;2022-08-04T02:35:35;98693.53;;;17.53;64.40
39491;BME280;25175;50.140;18.990;2022-08-04T02:38:55;98687.44;;;17.52;64.33
39491;BME280;25175;50.140;18.990;2022-08-04T02:41:58;98684.47;;;17.49;64.42
39491;BME280;25175;50.140;18.990;2022-08-04T02:45:01;98691.81;;;17.47;64.38
39491;BME280;25175;50.140;18.990;2022-08-04T02:48:07;98689.06;;;17.42;64.98
39491;BME280;25175;50.140;18.990;2022-08-04T02:51:13;98692.78;;;17.41;65.24
39491;BME280;25175;50.140;18.990;2022-08-04T02:54:17;98692.53;;;17.42;65.01
39491;BME280;25175;50.140;18.990;2022-08-04T02:57:22;98693.59;;;17.41;65.04
39491;BME280;25175;50.140;18.990;2022-08-04T03:00:25;98691.97;;;17.40;65.34
39491;BME280;25175;50.140;18.990;2022-08-04T03:03:33;98697.84;;;17.42;65.18
39491;BME280;25175;50.140;18.990;2022-08-04T03:07:04;98698.06;;;17.41;65.38
39491;BME280;25175;50.140;18.990;2022-08-04T03:10:25;98691.41;;;17.38;65.47
39491;BME280;25175;50.140;18.990;2022-08-04T03:14:04;98700.63;;;17.36;65.71
39491;BME280;25175;50.140;18.990;2022-08-04T03:21:24;98700.31;;;17.16;66.30
39491;BME280;25175;50.140;18.990;2022-08-04T03:28:48;98700.25;;;16.99;67.19
39491;BME280;25175;50.140;18.990;2022-08-04T03:35:39;98713.28;;;16.89;67.58
39491;BME280;25175;50.140;18.990;2022-08-04T03:39:22;98713.06;;;16.91;67.59
39491;BME280;25175;50.140;18.990;2022-08-04T03:42:52;98717.09;;;16.93;67.77
39491;BME280;25175;50.140;18.990;2022-08-04T03:46:19;98706.50;;;16.93;67.68
39491;BME280;25175;50.140;18.990;2022-08-04T03:50:02;98712.34;;;16.95;67.66
39491;BME280;25175;50.140;18.990;2022-08-04T03:53:32;98715.59;;;16.98;67.80
39491;BME280;25175;50.140;18.990;2022-08-04T03:56:54;98714.31;;;17.00;67.74
39491;BME280;25175;50.140;18.990;2022-08-04T04:00:06;98715.69;;;17.02;67.63
39491;BME280;25175;50.140;18.990;2022-08-04T04:03:37;98720.16;;;17.02;67.60
39491;BME280;25175;50.140;18.990;2022-08-04T04:07:13;98706.91;;;17.02;67.83
39491;BME280;25175;50.140;18.990;2022-08-04T04:10:31;98716.00;;;17.06;67.87
39491;BME280;25175;50.140;18.990;2022-08-04T04:17:13;98716.41;;;17.14;68.30
39491;BME280;25175;50.140;18.990;2022-08-04T04:20:32;98712.22;;;17.18;68.34
39491;BME280;25175;50.140;18.990;2022-08-04T04:23:56;98713.59;;;17.21;68.74
39491;BME280;25175;50.140;18.990;2022-08-04T04:27:08;98710.72;;;17.22;68.63
39491;BME280;25175;50.140;18.990;2022-08-04T04:30:18;98710.03;;;17.27;69.08
39491;BME280;25175;50.140;18.990;2022-08-04T04:33:36;98709.78;;;17.28;69.48
39491;BME280;25175;50.140;18.990;2022-08-04T04:36:51;98717.97;;;17.27;69.86
39491;BME280;25175;50.140;18.990;2022-08-04T04:40:07;98722.91;;;17.23;70.25
39491;BME280;25175;50.140;18.990;2022-08-04T04:46:51;98721.31;;;17.22;71.07
39491;BME280;25175;50.140;18.990;2022-08-04T04:50:03;98726.47;;;17.29;71.07
39491;BME280;25175;50.140;18.990;2022-08-04T04:53:15;98719.41;;;17.34;71.21
39491;BME280;25175;50.140;18.990;2022-08-04T04:56:26;98721.09;;;17.40;71.33
39491;BME280;25175;50.140;18.990;2022-08-04T04:59:32;98717.97;;;17.43;71.53
39491;BME280;25175;50.140;18.990;2022-08-04T05:03:03;98713.00;;;17.47;71.50
39491;BME280;25175;50.140;18.990;2022-08-04T05:06:20;98717.59;;;17.51;71.70
39491;BME280;25175;50.140;18.990;2022-08-04T05:09:37;98719.22;;;17.52;71.90
39491;BME280;25175;50.140;18.990;2022-08-04T05:12:55;98726.69;;;17.55;72.12
39491;BME280;25175;50.140;18.990;2022-08-04T05:16:02;98730.38;;;17.54;72.34
39491;BME280;25175;50.140;18.990;2022-08-04T05:19:24;98735.28;;;17.62;72.10
39491;BME280;25175;50.140;18.990;2022-08-04T05:22:34;98740.19;;;17.70;72.01
39491;BME280;25175;50.140;18.990;2022-08-04T05:25:42;98739.78;;;17.78;71.78
39491;BME280;25175;50.140;18.990;2022-08-04T05:28:51;98736.16;;;17.84;71.90
39491;BME280;25175;50.140;18.990;2022-08-04T05:31:56;98734.63;;;17.88;71.99
39491;BME280;25175;50.140;18.990;2022-08-04T05:35:04;98737.91;;;17.95;71.94
39491;BME280;25175;50.140;18.990;2022-08-04T05:38:09;98735.41;;;18.05;71.75
39491;BME280;25175;50.140;18.990;2022-08-04T05:41:13;98729.22;;;18.16;71.82
39491;BME280;25175;50.140;18.990;2022-08-04T05:44:17;98744.50;;;18.26;71.59
39491;BME280;25175;50.140;18.990;2022-08-04T05:47:19;98734.28;;;18.34;71.47
39491;BME280;25175;50.140;18.990;2022-08-04T05:50:23;98740.75;;;18.43;71.04
39491;BME280;25175;50.140;18.990;2022-08-04T05:53:26;98735.28;;;18.50;71.04
39491;BME280;25175;50.140;18.990;2022-08-04T05:56:29;98735.41;;;18.60;71.15
39491;BME280;25175;50.140;18.990;2022-08-04T05:59:36;98733.13;;;18.68;71.18
39491;BME280;25175;50.140;18.990;2022-08-04T06:02:39;98750.78;;;18.79;70.60
39491;BME280;25175;50.140;18.990;2022-08-04T06:05:45;98739.72;;;18.87;70.02
39491;BME280;25175;50.140;18.990;2022-08-04T06:08:48;98735.56;;;18.96;69.20
39491;BME280;25175;50.140;18.990;2022-08-04T06:11:52;98744.38;;;19.02;68.55
39491;BME280;25175;50.140;18.990;2022-08-04T06:14:56;98743.75;;;19.11;68.21
39491;BME280;25175;50.140;18.990;2022-08-04T06:18:02;98740.38;;;19.21;68.14
39491;BME280;25175;50.140;18.990;2022-08-04T06:21:08;98750.06;;;19.32;67.87
39491;BME280;25175;50.140;18.990;2022-08-04T06:24:19;98743.53;;;19.44;67.92
39491;BME280;25175;50.140;18.990;2022-08-04T06:27:25;98745.47;;;19.54;67.88
39491;BME280;25175;50.140;18.990;2022-08-04T06:30:30;98741.03;;;19.64;67.24
39491;BME280;25175;50.140;18.990;2022-08-04T06:33:34;98751.22;;;19.72;67.00
39491;BME280;25175;50.140;18.990;2022-08-04T06:36:39;98753.72;;;19.84;66.75
39491;BME280;25175;50.140;18.990;2022-08-04T06:39:42;98752.25;;;19.98;66.25
39491;BME280;25175;50.140;18.990;2022-08-04T06:42:45;98749.66;;;20.08;65.60
39491;BME280;25175;50.140;18.990;2022-08-04T06:45:49;98743.03;;;20.15;65.17
39491;BME280;25175;50.140;18.990;2022-08-04T06:48:52;98742.03;;;20.21;65.20
39491;BME280;25175;50.140;18.990;2022-08-04T06:51:57;98736.00;;;20.36;65.47
39491;BME280;25175;50.140;18.990;2022-08-04T06:54:59;98739.28;;;20.48;64.23
39491;BME280;25175;50.140;18.990;2022-08-04T06:58:02;98742.81;;;20.63;64.17
39491;BME280;25175;50.140;18.990;2022-08-04T07:01:04;98744.72;;;20.78;64.35
39491;BME280;25175;50.140;18.990;2022-08-04T07:04:07;98747.97;;;20.95;63.71
39491;BME280;25175;50.140;18.990;2022-08-04T07:07:12;98744.84;;;21.08;63.21
39491;BME280;25175;50.140;18.990;2022-08-04T07:10:15;98739.56;;;21.23;63.14
39491;BME280;25175;50.140;18.990;2022-08-04T07:13:19;98741.72;;;21.36;62.10
39491;BME280;25175;50.140;18.990;2022-08-04T07:16:22;98734.28;;;21.48;62.05
39491;BME280;25175;50.140;18.990;2022-08-04T07:19:25;98739.34;;;21.64;62.04
39491;BME280;25175;50.140;18.990;2022-08-04T07:22:29;98734.25;;;21.78;60.92
39491;BME280;25175;50.140;18.990;2022-08-04T07:25:32;98734.56;;;21.91;60.94
39491;BME280;25175;50.140;18.990;2022-08-04T07:28:35;98735.63;;;22.05;60.13
39491;BME280;25175;50.140;18.990;2022-08-04T07:31:38;98728.66;;;22.19;59.31
39491;BME280;25175;50.140;18.990;2022-08-04T07:34:41;98738.22;;;22.35;58.53
39491;BME280;25175;50.140;18.990;2022-08-04T07:37:45;98737.13;;;22.51;58.05
39491;BME280;25175;50.140;18.990;2022-08-04T07:40:47;98729.59;;;22.63;56.74
39491;BME280;25175;50.140;18.990;2022-08-04T07:43:49;98731.69;;;22.76;55.97
39491;BME280;25175;50.140;18.990;2022-08-04T07:46:53;98732.16;;;22.88;55.67
39491;BME280;25175;50.140;18.990;2022-08-04T07:49:55;98733.72;;;22.99;55.10
39491;BME280;25175;50.140;18.990;2022-08-04T07:52:59;98738.44;;;23.12;55.50
39491;BME280;25175;50.140;18.990;2022-08-04T07:56:02;98727.97;;;23.26;54.72
39491;BME280;25175;50.140;18.990;2022-08-04T07:59:05;98735.94;;;23.36;54.22
39491;BME280;25175;50.140;18.990;2022-08-04T08:02:07;98729.97;;;23.49;54.33
39491;BME280;25175;50.140;18.990;2022-08-04T08:05:14;98732.50;;;23.64;53.75
39491;BME280;25175;50.140;18.990;2022-08-04T08:08:19;98726.28;;;23.73;52.89
39491;BME280;25175;50.140;18.990;2022-08-04T08:11:21;98726.44;;;23.87;53.62
39491;BME280;25175;50.140;18.990;2022-08-04T08:14:24;98725.00;;;23.99;52.17
39491;BME280;25175;50.140;18.990;2022-08-04T08:17:26;98731.31;;;24.13;53.26
39491;BME280;25175;50.140;18.990;2022-08-04T08:20:29;98724.72;;;24.29;50.89
39491;BME280;25175;50.140;18.990;2022-08-04T08:23:34;98731.00;;;24.43;50.30
39491;BME280;25175;50.140;18.990;2022-08-04T08:26:36;98729.28;;;24.52;49.24
39491;BME280;25175;50.140;18.990;2022-08-04T08:29:39;98727.00;;;24.64;48.98
39491;BME280;25175;50.140;18.990;2022-08-04T08:32:41;98737.00;;;24.77;48.66
39491;BME280;25175;50.140;18.990;2022-08-04T08:35:49;98734.75;;;24.89;48.31
39491;BME280;25175;50.140;18.990;2022-08-04T08:38:58;98729.47;;;25.03;48.67
39491;BME280;25175;50.140;18.990;2022-08-04T08:42:25;98734.34;;;25.19;47.86
39491;BME280;25175;50.140;18.990;2022-08-04T08:45:55;98729.75;;;25.38;48.25
39491;BME280;25175;50.140;18.990;2022-08-04T08:49:11;98734.97;;;25.48;47.25
39491;BME280;25175;50.140;18.990;2022-08-04T08:52:45;98736.44;;;25.59;47.66
39491;BME280;25175;50.140;18.990;2022-08-04T08:56:10;98739.16;;;25.73;47.13
39491;BME280;25175;50.140;18.990;2022-08-04T08:59:25;98740.19;;;25.77;46.86
39491;BME280;25175;50.140;18.990;2022-08-04T09:06:35;98728.88;;;25.93;46.32
39491;BME280;25175;50.140;18.990;2022-08-04T09:10:01;98733.78;;;26.05;47.43
39491;BME280;25175;50.140;18.990;2022-08-04T09:13:12;98732.94;;;26.23;45.95
39491;BME280;25175;50.140;18.990;2022-08-04T09:16:21;98735.16;;;26.34;44.85
39491;BME280;25175;50.140;18.990;2022-08-04T09:19:31;98743.53;;;26.46;43.91
39491;BME280;25175;50.140;18.990;2022-08-04T09:22:38;98740.16;;;26.54;43.79
39491;BME280;25175;50.140;18.990;2022-08-04T09:25:49;98735.56;;;26.68;43.04
39491;BME280;25175;50.140;18.990;2022-08-04T09:29:04;98730.19;;;26.82;42.41
39491;BME280;25175;50.140;18.990;2022-08-04T09:32:16;98725.38;;;26.92;43.07
39491;BME280;25175;50.140;18.990;2022-08-04T09:35:33;98735.94;;;27.02;42.62
39491;BME280;25175;50.140;18.990;2022-08-04T09:38:42;98722.97;;;27.18;43.49
39491;BME280;25175;50.140;18.990;2022-08-04T09:41:53;98721.34;;;27.30;42.39
39491;BME280;25175;50.140;18.990;2022-08-04T09:45:10;98717.75;;;27.35;41.52
39491;BME280;25175;50.140;18.990;2022-08-04T09:48:19;98716.72;;;27.44;41.21
39491;BME280;25175;50.140;18.990;2022-08-04T09:51:36;98720.44;;;27.57;40.59
39491;BME280;25175;50.140;18.990;2022-08-04T09:54:48;98714.44;;;27.60;40.86
39491;BME280;25175;50.140;18.990;2022-08-04T09:57:58;98711.50;;;27.70;42.07
39491;BME280;25175;50.140;18.990;2022-08-04T10:01:08;98708.13;;;27.86;41.06
39491;BME280;25175;50.140;18.990;2022-08-04T10:04:12;98701.88;;;27.99;41.57
39491;BME280;25175;50.140;18.990;2022-08-04T10:07:35;98700.69;;;28.14;41.92
39491;BME280;25175;50.140;18.990;2022-08-04T10:10:50;98700.59;;;28.27;39.84
39491;BME280;25175;50.140;18.990;2022-08-04T10:14:00;98698.13;;;28.39;40.50
39491;BME280;25175;50.140;18.990;2022-08-04T10:17:14;98721.00;;;28.50;39.77
39491;BME280;25175;50.140;18.990;2022-08-04T10:20:32;98704.06;;;28.58;38.74
39491;BME280;25175;50.140;18.990;2022-08-04T10:24:02;98712.78;;;28.64;38.54
39491;BME280;25175;50.140;18.990;2022-08-04T10:27:11;98701.38;;;28.67;39.74
39491;BME280;25175;50.140;18.990;2022-08-04T10:30:18;98707.09;;;28.74;38.73
39491;BME280;25175;50.140;18.990;2022-08-04T10:33:27;98709.66;;;28.79;40.47
39491;BME280;25175;50.140;18.990;2022-08-04T10:36:40;98707.16;;;28.91;38.79
39491;BME280;25175;50.140;18.990;2022-08-04T10:39:51;98707.97;;;29.00;38.22
39491;BME280;25175;50.140;18.990;2022-08-04T10:43:17;98702.72;;;29.03;37.87
39491;BME280;25175;50.140;18.990;2022-08-04T10:46:25;98701.78;;;29.08;37.05
39491;BME280;25175;50.140;18.990;2022-08-04T10:49:34;98699.53;;;29.10;37.52
39491;BME280;25175;50.140;18.990;2022-08-04T10:52:43;98697.50;;;29.15;37.24
39491;BME280;25175;50.140;18.990;2022-08-04T10:55:51;98703.69;;;29.24;37.98
39491;BME280;25175;50.140;18.990;2022-08-04T10:59:01;98694.63;;;29.29;36.81
39491;BME280;25175;50.140;18.990;2022-08-04T11:02:11;98700.34;;;29.27;36.02
39491;BME280;25175;50.140;18.990;2022-08-04T11:05:24;98683.88;;;29.37;36.55
39491;BME280;25175;50.140;18.990;2022-08-04T11:08:34;98690.97;;;29.50;35.47
39491;BME280;25175;50.140;18.990;2022-08-04T11:11:39;98691.63;;;29.56;35.91
39491;BME280;25175;50.140;18.990;2022-08-04T11:14:49;98701.63;;;29.64;35.55
39491;BME280;25175;50.140;18.990;2022-08-04T11:17:55;98690.31;;;29.70;35.15
39491;BME280;25175;50.140;18.990;2022-08-04T11:21:02;98689.19;;;29.80;34.46
39491;BME280;25175;50.140;18.990;2022-08-04T11:24:15;98689.03;;;29.76;35.55
39491;BME280;25175;50.140;18.990;2022-08-04T11:27:23;98680.31;;;29.79;34.90
39491;BME280;25175;50.140;18.990;2022-08-04T11:30:30;98693.63;;;29.84;34.45
39491;BME280;25175;50.140;18.990;2022-08-04T11:33:43;98682.50;;;29.94;34.79
39491;BME280;25175;50.140;18.990;2022-08-04T11:40:14;98682.16;;;30.04;34.80
39491;BME280;25175;50.140;18.990;2022-08-04T11:43:34;98669.91;;;30.07;34.86
39491;BME280;25175;50.140;18.990;2022-08-04T11:46:41;98672.09;;;30.13;33.92
39491;BME280;25175;50.140;18.990;2022-08-04T11:49:44;98671.22;;;30.30;34.21
39491;BME280;25175;50.140;18.990;2022-08-04T11:52:51;98666.75;;;30.42;33.99
39491;BME280;25175;50.140;18.990;2022-08-04T11:56:01;98666.88;;;30.46;33.01
39491;BME280;25175;50.140;18.990;2022-08-04T11:59:06;98673.22;;;30.50;32.74
39491;BME280;25175;50.140;18.990;2022-08-04T12:02:36;98666.78;;;30.63;32.16
39491;BME280;25175;50.140;18.990;2022-08-04T12:05:47;98662.56;;;30.74;32.44
39491;BME280;25175;50.140;18.990;2022-08-04T12:09:02;98662.81;;;30.81;32.23
39491;BME280;25175;50.140;18.990;2022-08-04T12:12:12;98663.63;;;30.81;32.87
39491;BME280;25175;50.140;18.990;2022-08-04T12:15:25;98648.16;;;30.90;32.88
39491;BME280;25175;50.140;18.990;2022-08-04T12:18:33;98648.41;;;30.97;32.13
39491;BME280;25175;50.140;18.990;2022-08-04T12:21:40;98644.25;;;31.00;32.01
39491;BME280;25175;50.140;18.990;2022-08-04T12:24:47;98639.78;;;31.04;31.61
39491;BME280;25175;50.140;18.990;2022-08-04T12:27:54;98635.47;;;31.03;31.74
39491;BME280;25175;50.140;18.990;2022-08-04T12:31:01;98636.94;;;31.00;31.08
39491;BME280;25175;50.140;18.990;2022-08-04T12:34:09;98645.38;;;30.99;31.00
39491;BME280;25175;50.140;18.990;2022-08-04T12:37:17;98640.41;;;31.01;31.18
39491;BME280;25175;50.140;18.990;2022-08-04T12:40:28;98637.63;;;31.09;31.59
39491;BME280;25175;50.140;18.990;2022-08-04T12:43:36;98630.00;;;31.11;32.89
39491;BME280;25175;50.140;18.990;2022-08-04T12:46:39;98631.09;;;31.10;32.26
39491;BME280;25175;50.140;18.990;2022-08-04T12:49:46;98639.81;;;31.16;33.16
39491;BME280;25175;50.140;18.990;2022-08-04T12:52:53;98632.06;;;31.26;32.98
39491;BME280;25175;50.140;18.990;2022-08-04T12:55:57;98633.44;;;31.32;32.37
39491;BME280;25175;50.140;18.990;2022-08-04T12:59:02;98623.75;;;31.31;32.16
39491;BME280;25175;50.140;18.990;2022-08-04T13:02:06;98619.22;;;31.23;31.51
39491;BME280;25175;50.140;18.990;2022-08-04T13:05:13;98623.38;;;31.21;31.81
39491;BME280;25175;50.140;18.990;2022-08-04T13:08:19;98619.41;;;31.18;31.50
39491;BME280;25175;50.140;18.990;2022-08-04T13:11:23;98618.38;;;31.11;32.00
39491;BME280;25175;50.140;18.990;2022-08-04T13:14:27;98612.34;;;31.05;31.52
39491;BME280;25175;50.140;18.990;2022-08-04T13:17:42;98611.69;;;31.08;31.84
39491;BME280;25175;50.140;18.990;2022-08-04T13:20:46;98605.84;;;31.06;31.94
39491;BME280;25175;50.140;18.990;2022-08-04T13:23:51;98596.34;;;31.00;32.31
39491;BME280;25175;50.140;18.990;2022-08-04T13:26:59;98593.63;;;31.00;32.16
39491;BME280;25175;50.140;18.990;2022-08-04T13:30:03;98600.03;;;30.96;32.15
39491;BME280;25175;50.140;18.990;2022-08-04T13:33:06;98601.41;;;31.02;32.18
39491;BME280;25175;50.140;18.990;2022-08-04T13:36:09;98586.88;;;31.06;31.88
39491;BME280;25175;50.140;18.990;2022-08-04T13:39:15;98590.75;;;31.17;31.42
39491;BME280;25175;50.140;18.990;2022-08-04T13:42:19;98593.47;;;31.17;32.56
39491;BME280;25175;50.140;18.990;2022-08-04T13:45:24;98591.75;;;31.13;31.84
39491;BME280;25175;50.140;18.990;2022-08-04T13:48:30;98588.63;;;31.23;31.87
39491;BME280;25175;50.140;18.990;2022-08-04T13:51:34;98593.63;;;31.33;31.53
39491;BME280;25175;50.140;18.990;2022-08-04T13:54:38;98587.88;;;31.34;31.03
39491;BME280;25175;50.140;18.990;2022-08-04T13:57:46;98588.34;;;31.36;31.00
39491;BME280;25175;50.140;18.990;2022-08-04T14:00:53;98584.50;;;31.37;31.80
39491;BME280;25175;50.140;18.990;2022-08-04T14:04:08;98581.47;;;31.39;31.47
39491;BME280;25175;50.140;18.990;2022-08-04T14:07:15;98588.84;;;31.50;32.02
39491;BME280;25175;50.140;18.990;2022-08-04T14:10:18;98586.81;;;31.59;31.65
39491;BME280;25175;50.140;18.990;2022-08-04T14:13:29;98583.91;;;31.64;31.46
39491;BME280;25175;50.140;18.990;2022-08-04T14:16:33;98582.75;;;31.65;31.27
39491;BME280;25175;50.140;18.990;2022-08-04T14:19:48;98580.06;;;31.65;31.27
39491;BME280;25175;50.140;18.990;2022-08-04T14:22:59;98579.50;;;31.60;30.82
39491;BME280;25175;50.140;18.990;2022-08-04T14:26:12;98576.88;;;31.39;31.82
39491;BME280;25175;50.140;18.990;2022-08-04T14:29:17;98576.94;;;31.31;31.60
39491;BME280;25175;50.140;18.990;2022-08-04T14:32:20;98575.53;;;31.25;31.57
39491;BME280;25175;50.140;18.990;2022-08-04T14:35:23;98566.84;;;31.19;31.73
39491;BME280;25175;50.140;18.990;2022-08-04T14:38:40;98570.47;;;31.23;31.81
39491;BME280;25175;50.140;18.990;2022-08-04T14:41:44;98558.06;;;31.22;31.24
39491;BME280;25175;50.140;18.990;2022-08-04T14:44:59;98550.56;;;31.07;31.23
39491;BME280;25175;50.140;18.990;2022-08-04T14:48:05;98551.22;;;31.04;31.82
39491;BME280;25175;50.140;18.990;2022-08-04T14:51:13;98549.69;;;31.15;31.64
39491;BME280;25175;50.140;18.990;2022-08-04T14:54:25;98549.03;;;31.30;31.26
39491;BME280;25175;50.140;18.990;2022-08-04T14:57:27;98552.78;;;31.26;30.99
39491;BME280;25175;50.140;18.990;2022-08-04T15:00:33;98544.75;;;31.29;31.34
39491;BME280;25175;50.140;18.990;2022-08-04T15:03:38;98546.34;;;31.30;31.24
39491;BME280;25175;50.140;18.990;2022-08-04T15:06:40;98550.63;;;31.31;31.20
39491;BME280;25175;50.140;18.990;2022-08-04T15:09:43;98548.59;;;31.28;31.02
39491;BME280;25175;50.140;18.990;2022-08-04T15:12:47;98550.50;;;31.28;31.18
39491;BME280;25175;50.140;18.990;2022-08-04T15:15:51;98546.75;;;31.20;31.30
39491;BME280;25175;50.140;18.990;2022-08-04T15:18:54;98550.28;;;31.21;31.49
39491;BME280;25175;50.140;18.990;2022-08-04T15:21:57;98550.34;;;31.12;31.10
39491;BME280;25175;50.140;18.990;2022-08-04T15:25:00;98557.75;;;31.03;31.43
39491;BME280;25175;50.140;18.990;2022-08-04T15:28:03;98555.25;;;30.98;31.75
39491;BME280;25175;50.140;18.990;2022-08-04T15:31:08;98554.81;;;30.96;32.15
39491;BME280;25175;50.140;18.990;2022-08-04T15:34:11;98552.88;;;30.97;31.80
39491;BME280;25175;50.140;18.990;2022-08-04T15:37:17;98551.19;;;30.92;32.32
39491;BME280;25175;50.140;18.990;2022-08-04T15:40:28;98547.94;;;30.78;31.90
39491;BME280;25175;50.140;18.990;2022-08-04T15:43:44;98544.72;;;30.64;31.51
39491;BME280;25175;50.140;18.990;2022-08-04T15:47:13;98544.47;;;30.57;32.28
39491;BME280;25175;50.140;18.990;2022-08-04T15:50:17;98548.28;;;30.56;32.56
39491;BME280;25175;50.140;18.990;2022-08-04T15:53:19;98542.28;;;30.51;32.79
39491;BME280;25175;50.140;18.990;2022-08-04T15:56:51;98539.13;;;30.49;32.47
39491;BME280;25175;50.140;18.990;2022-08-04T15:59:55;98536.28;;;30.45;32.86
39491;BME280;25175;50.140;18.990;2022-08-04T16:03:00;98533.47;;;30.33;32.99
39491;BME280;25175;50.140;18.990;2022-08-04T16:06:40;98538.59;;;30.26;33.39
39491;BME280;25175;50.140;18.990;2022-08-04T16:09:43;98531.50;;;30.22;33.09
39491;BME280;25175;50.140;18.990;2022-08-04T16:12:52;98536.41;;;30.20;33.24
39491;BME280;25175;50.140;18.990;2022-08-04T16:15:56;98536.47;;;30.11;33.25
39491;BME280;25175;50.140;18.990;2022-08-04T16:19:04;98534.44;;;30.08;33.86
39491;BME280;25175;50.140;18.990;2022-08-04T16:22:10;98533.78;;;30.11;33.71
39491;BME280;25175;50.140;18.990;2022-08-04T16:25:13;98531.59;;;30.05;33.36
39491;BME280;25175;50.140;18.990;2022-08-04T16:28:37;98526.84;;;30.02;33.36
39491;BME280;25175;50.140;18.990;2022-08-04T16:31:40;98531.97;;;29.95;33.25
39491;BME280;25175;50.140;18.990;2022-08-04T16:34:47;98530.59;;;29.80;33.70
39491;BME280;25175;50.140;18.990;2022-08-04T16:37:51;98529.84;;;29.71;33.84
39491;BME280;25175;50.140;18.990;2022-08-04T16:40:55;98526.72;;;29.61;33.97
39491;BME280;25175;50.140;18.990;2022-08-04T16:44:27;98523.25;;;29.52;33.80
39491;BME280;25175;50.140;18.990;2022-08-04T16:48:00;98537.41;;;29.40;34.33
39491;BME280;25175;50.140;18.990;2022-08-04T16:51:06;98526.97;;;29.30;34.60
39491;BME280;25175;50.140;18.990;2022-08-04T16:54:09;98527.91;;;29.26;35.03
39491;BME280;25175;50.140;18.990;2022-08-04T16:57:11;98533.66;;;29.24;35.23
39491;BME280;25175;50.140;18.990;2022-08-04T17:00:15;98539.22;;;29.19;35.02